createdAt,value
2022-07-28T00:00:05.975Z,92.43
2022-07-28T00:01:05.963Z,92.32
2022-07-28T00:02:06.080Z,92.32
2022-07-28T00:03:06.036Z,92.22
2022-07-28T00:04:05.924Z,92.32
2022-07-28T00:05:08.920Z,92.27
2022-07-28T00:06:08.906Z,92.22
2022-07-28T00:07:05.884Z,92.36
2022-07-28T00:08:05.895Z,92.47
2022-07-28T00:09:05.875Z,92.47
2022-07-28T00:10:05.846Z,92.57
2022-07-28T00:11:05.827Z,92.57
2022-07-28T00:12:05.815Z,92.47
2022-07-28T00:13:06.760Z,92.27
2022-07-28T00:14:05.817Z,92.27
2022-07-28T00:15:05.777Z,92.27
2022-07-28T00:16:05.804Z,92.06
2022-07-28T00:17:05.758Z,92.10
2022-07-28T00:18:05.740Z,92.10
2022-07-28T00:19:05.757Z,92.21
2022-07-28T00:20:05.713Z,92.21
2022-07-28T00:21:05.870Z,92.31
2022-07-28T00:22:05.689Z,92.41
2022-07-28T00:23:05.671Z,92.61
2022-07-28T00:24:05.664Z,92.68
2022-07-28T00:25:08.651Z,92.78
2022-07-28T00:26:08.700Z,92.98
2022-07-28T00:27:05.621Z,93.39
2022-07-28T00:28:05.623Z,93.60
2022-07-28T00:29:05.601Z,93.70
2022-07-28T00:30:05.582Z,93.80
2022-07-28T00:31:07.769Z,93.96
2022-07-28T00:32:05.702Z,94.07
2022-07-28T00:33:05.555Z,94.07
2022-07-28T00:34:05.535Z,93.96
2022-07-28T00:35:05.523Z,93.86
2022-07-28T00:36:05.503Z,93.86
2022-07-28T00:37:06.751Z,93.96
2022-07-28T00:38:05.505Z,93.96
2022-07-28T00:39:05.464Z,94.17
2022-07-28T00:40:05.445Z,94.27
2022-07-28T00:41:05.437Z,94.37
2022-07-28T00:42:05.464Z,94.37
2022-07-28T00:43:05.455Z,94.48
2022-07-28T00:44:05.395Z,94.58
2022-07-28T00:45:08.390Z,94.58
2022-07-28T00:46:08.481Z,94.78
2022-07-28T00:47:05.405Z,94.89
2022-07-28T00:48:05.352Z,95.09
2022-07-28T00:49:05.421Z,95.29
2022-07-28T00:50:05.320Z,95.36
2022-07-28T00:51:05.318Z,95.46
2022-07-28T00:52:05.306Z,95.46
2022-07-28T00:53:05.290Z,95.46
2022-07-28T00:54:13.073Z,95.46
2022-07-28T00:55:05.255Z,95.56
2022-07-28T00:56:06.640Z,95.46
2022-07-28T00:57:05.274Z,95.56
2022-07-28T00:58:05.225Z,95.76
2022-07-28T00:59:05.204Z,95.97
2022-07-28T01:00:05.194Z,96.17
2022-07-28T01:01:05.177Z,96.33
2022-07-28T01:02:05.286Z,96.33
2022-07-28T01:03:05.267Z,96.44
2022-07-28T01:04:05.145Z,96.44
2022-07-28T01:05:08.127Z,96.54
2022-07-28T01:06:08.127Z,96.49
2022-07-28T01:07:05.106Z,96.49
2022-07-28T01:08:05.088Z,96.49
2022-07-28T01:09:05.129Z,96.39
2022-07-28T01:10:05.061Z,96.39
2022-07-28T01:11:05.049Z,96.25
2022-07-28T01:12:05.037Z,96.14
2022-07-28T01:13:05.029Z,96.04
2022-07-28T01:14:05.010Z,95.94
2022-07-28T01:15:05.028Z,95.84
2022-07-28T01:16:05.077Z,95.84
2022-07-28T01:17:04.997Z,95.84
2022-07-28T01:18:04.960Z,95.94
2022-07-28T01:19:04.988Z,95.94
2022-07-28T01:20:04.934Z,95.94
2022-07-28T01:21:04.922Z,95.94
2022-07-28T01:22:04.953Z,95.89
2022-07-28T01:23:04.902Z,95.89
2022-07-28T01:24:04.882Z,95.89
2022-07-28T01:25:07.873Z,95.89
2022-07-28T01:26:07.915Z,95.89
2022-07-28T01:27:04.843Z,95.89
2022-07-28T01:28:04.861Z,95.89
2022-07-28T01:29:04.823Z,96.00
2022-07-28T01:30:04.813Z,96.00
2022-07-28T01:31:04.842Z,96.00
2022-07-28T01:32:04.835Z,96.00
2022-07-28T01:33:04.768Z,95.89
2022-07-28T01:34:04.746Z,95.89
2022-07-28T01:35:04.746Z,95.89
2022-07-28T01:36:04.727Z,95.75
2022-07-28T01:37:04.727Z,95.89
2022-07-28T01:38:04.757Z,95.85
2022-07-28T01:39:04.687Z,95.85
2022-07-28T01:40:04.690Z,95.85
2022-07-28T01:41:04.674Z,95.79
2022-07-28T01:42:04.659Z,95.75
2022-07-28T01:43:04.639Z,95.69
2022-07-28T01:44:04.660Z,95.64
2022-07-28T01:45:07.629Z,95.64
2022-07-28T01:46:07.648Z,95.75
2022-07-28T01:47:04.589Z,95.64
2022-07-28T01:48:04.640Z,95.64
2022-07-28T01:49:04.685Z,95.54
2022-07-28T01:50:04.541Z,95.44
2022-07-28T01:51:04.540Z,95.48
2022-07-28T01:52:04.519Z,95.48
2022-07-28T01:53:04.501Z,95.59
2022-07-28T01:54:04.534Z,95.59
2022-07-28T01:55:04.506Z,95.59
2022-07-28T01:56:04.473Z,95.59
2022-07-28T01:57:04.453Z,95.48
2022-07-28T01:58:04.432Z,95.48
2022-07-28T01:59:04.421Z,95.38
2022-07-28T02:00:04.582Z,95.28
2022-07-28T02:01:04.404Z,95.18
2022-07-28T02:02:04.466Z,95.07
2022-07-28T02:03:04.375Z,95.07
2022-07-28T02:04:04.365Z,95.07
2022-07-28T02:05:07.420Z,95.18
2022-07-28T02:06:07.406Z,95.18
2022-07-28T02:07:04.315Z,95.07
2022-07-28T02:08:04.317Z,95.07
2022-07-28T02:09:04.297Z,95.07
2022-07-28T02:10:04.288Z,95.18
2022-07-28T02:11:04.329Z,95.07
2022-07-28T02:12:04.268Z,95.07
2022-07-28T02:13:04.257Z,95.07
2022-07-28T02:14:04.228Z,94.97
2022-07-28T02:15:04.227Z,94.87
2022-07-28T02:16:04.251Z,94.87
2022-07-28T02:17:04.230Z,94.97
2022-07-28T02:18:04.177Z,95.07
2022-07-28T02:19:04.175Z,95.07
2022-07-28T02:20:04.159Z,94.87
2022-07-28T02:21:04.212Z,94.77
2022-07-28T02:22:04.130Z,94.77
2022-07-28T02:23:04.129Z,94.77
2022-07-28T02:24:04.101Z,94.87
2022-07-28T02:25:07.082Z,94.97
2022-07-28T02:26:07.124Z,95.18
2022-07-28T02:27:04.059Z,95.38
2022-07-28T02:28:04.111Z,95.48
2022-07-28T02:29:04.032Z,95.59
2022-07-28T02:30:04.012Z,95.59
2022-07-28T02:31:04.060Z,95.59
2022-07-28T02:32:04.025Z,95.48
2022-07-28T02:33:05.003Z,95.48
2022-07-28T02:34:03.964Z,95.59
2022-07-28T02:35:03.953Z,95.69
2022-07-28T02:36:03.936Z,95.79
2022-07-28T02:37:03.926Z,95.79
2022-07-28T02:38:03.934Z,95.79
2022-07-28T02:39:03.885Z,95.85
2022-07-28T02:40:03.874Z,95.95
2022-07-28T02:41:03.874Z,96.05
2022-07-28T02:42:03.865Z,96.05
2022-07-28T02:43:03.897Z,96.15
2022-07-28T02:44:03.828Z,96.15
2022-07-28T02:45:06.826Z,96.15
2022-07-28T02:46:06.828Z,96.15
2022-07-28T02:47:03.798Z,96.15
2022-07-28T02:48:03.780Z,96.05
2022-07-28T02:49:03.872Z,95.95
2022-07-28T02:50:03.759Z,95.75
2022-07-28T02:51:03.747Z,95.64
2022-07-28T02:52:03.729Z,95.54
2022-07-28T02:53:15.742Z,95.64
2022-07-28T02:54:04.728Z,95.75
2022-07-28T02:55:03.689Z,95.85
2022-07-28T02:56:03.670Z,95.95
2022-07-28T02:57:03.658Z,95.95
2022-07-28T02:58:05.393Z,96.05
2022-07-28T02:59:03.631Z,96.15
2022-07-28T03:00:03.624Z,96.26
2022-07-28T03:01:03.640Z,96.36
2022-07-28T03:02:03.594Z,96.46
2022-07-28T03:03:03.583Z,96.56
2022-07-28T03:04:03.733Z,96.62
2022-07-28T03:05:11.453Z,96.62
2022-07-28T03:06:07.567Z,96.62
2022-07-28T03:07:03.532Z,96.62
2022-07-28T03:08:03.524Z,96.56
2022-07-28T03:09:03.504Z,96.56
2022-07-28T03:10:03.544Z,96.46
2022-07-28T03:11:03.477Z,96.36
2022-07-28T03:12:03.463Z,96.26
2022-07-28T03:13:03.462Z,96.26
2022-07-28T03:14:03.440Z,96.26
2022-07-28T03:15:03.437Z,96.36
2022-07-28T03:16:03.436Z,96.36
2022-07-28T03:17:03.448Z,96.46
2022-07-28T03:18:03.399Z,96.51
2022-07-28T03:19:03.378Z,96.51
2022-07-28T03:20:03.365Z,96.41
2022-07-28T03:21:03.399Z,96.20
2022-07-28T03:22:03.347Z,96.10
2022-07-28T03:23:03.329Z,95.89
2022-07-28T03:24:03.320Z,95.79
2022-07-28T03:25:06.322Z,95.84
2022-07-28T03:26:06.327Z,95.94
2022-07-28T03:27:03.309Z,95.94
2022-07-28T03:28:03.250Z,96.04
2022-07-28T03:29:03.241Z,96.14
2022-07-28T03:30:04.150Z,96.19
2022-07-28T03:31:03.262Z,96.29
2022-07-28T03:32:03.218Z,96.29
2022-07-28T03:33:03.225Z,96.29
2022-07-28T03:34:03.214Z,96.29
2022-07-28T03:35:03.181Z,96.29
2022-07-28T03:36:03.163Z,96.29
2022-07-28T03:37:03.145Z,96.29
2022-07-28T03:38:03.133Z,96.29
2022-07-28T03:39:03.143Z,96.19
2022-07-28T03:40:03.115Z,96.08
2022-07-28T03:41:03.094Z,95.92
2022-07-28T03:42:03.087Z,95.82
2022-07-28T03:43:03.122Z,95.82
2022-07-28T03:44:03.059Z,95.82
2022-07-28T03:45:06.047Z,95.62
2022-07-28T03:46:09.880Z,95.51
2022-07-28T03:47:04.007Z,95.31
2022-07-28T03:48:03.000Z,95.21
2022-07-28T03:49:03.164Z,95.10
2022-07-28T03:50:02.975Z,95.10
2022-07-28T03:51:02.958Z,95.21
2022-07-28T03:52:02.950Z,95.21
2022-07-28T03:53:02.930Z,95.21
2022-07-28T03:54:02.927Z,95.31
2022-07-28T03:55:02.958Z,95.41
2022-07-28T03:56:02.900Z,95.51
2022-07-28T03:57:02.881Z,95.62
2022-07-28T03:58:02.870Z,95.82
2022-07-28T03:59:02.859Z,95.92
2022-07-28T04:00:06.184Z,96.03
2022-07-28T04:01:03.918Z,96.03
2022-07-28T04:02:02.854Z,96.13
2022-07-28T04:03:02.800Z,96.23
2022-07-28T04:04:02.814Z,96.33
2022-07-28T04:05:05.781Z,96.44
2022-07-28T04:06:05.827Z,96.74
2022-07-28T04:07:02.759Z,96.84
2022-07-28T04:08:02.758Z,97.05
2022-07-28T04:09:02.747Z,97.36
2022-07-28T04:10:02.742Z,97.56
2022-07-28T04:11:02.714Z,97.77
2022-07-28T04:12:02.693Z,98.07
2022-07-28T04:13:02.703Z,98.13
2022-07-28T04:14:02.674Z,98.24
2022-07-28T04:15:02.653Z,98.29
2022-07-28T04:16:02.648Z,98.39
2022-07-28T04:17:02.702Z,98.49
2022-07-28T04:18:02.655Z,98.39
2022-07-28T04:19:02.705Z,98.35
2022-07-28T04:20:02.656Z,98.24
2022-07-28T04:21:02.567Z,98.24
2022-07-28T04:22:02.562Z,98.04
2022-07-28T04:23:02.545Z,97.79
2022-07-28T04:24:02.548Z,97.79
2022-07-28T04:25:05.559Z,97.49
2022-07-28T04:26:05.531Z,97.28
2022-07-28T04:27:02.490Z,96.87
2022-07-28T04:28:02.489Z,96.56
2022-07-28T04:29:03.392Z,96.46
2022-07-28T04:30:02.461Z,96.36
2022-07-28T04:31:02.557Z,96.21
2022-07-28T04:32:02.432Z,95.90
2022-07-28T04:33:02.414Z,95.90
2022-07-28T04:34:02.401Z,95.90
2022-07-28T04:35:02.381Z,95.90
2022-07-28T04:36:02.409Z,95.80
2022-07-28T04:37:02.413Z,95.50
2022-07-28T04:38:02.378Z,95.09
2022-07-28T04:39:02.332Z,94.84
2022-07-28T04:40:02.324Z,94.53
2022-07-28T04:41:02.304Z,94.33
2022-07-28T04:42:02.295Z,94.23
2022-07-28T04:43:02.304Z,94.23
2022-07-28T04:44:02.267Z,94.33
2022-07-28T04:45:05.246Z,94.33
2022-07-28T04:46:05.295Z,94.29
2022-07-28T04:47:02.224Z,94.12
2022-07-28T04:48:03.885Z,93.92
2022-07-28T04:49:02.303Z,93.92
2022-07-28T04:50:02.184Z,94.12
2022-07-28T04:51:02.168Z,94.27
2022-07-28T04:52:02.157Z,94.48
2022-07-28T04:53:02.135Z,94.48
2022-07-28T04:54:02.148Z,94.68
2022-07-28T04:55:02.113Z,94.58
2022-07-28T04:56:02.446Z,94.58
2022-07-28T04:57:02.079Z,94.64
2022-07-28T04:58:03.090Z,94.53
2022-07-28T04:59:02.057Z,94.43
2022-07-28T05:00:02.038Z,94.64
2022-07-28T05:01:02.077Z,94.64
2022-07-28T05:02:02.010Z,94.84
2022-07-28T05:03:02.047Z,94.79
2022-07-28T05:04:01.982Z,94.59
2022-07-28T05:05:05.031Z,94.18
2022-07-28T05:06:04.964Z,94.08
2022-07-28T05:07:01.941Z,94.08
2022-07-28T05:08:02.952Z,94.18
2022-07-28T05:09:01.902Z,94.24
2022-07-28T05:10:01.903Z,93.73
2022-07-28T05:11:01.872Z,93.63
2022-07-28T05:12:01.865Z,93.52
2022-07-28T05:13:01.854Z,93.52
2022-07-28T05:14:01.893Z,93.48
2022-07-28T05:15:01.824Z,93.38
2022-07-28T05:16:01.814Z,92.97
2022-07-28T05:17:01.843Z,92.77
2022-07-28T05:18:01.776Z,92.46
2022-07-28T05:19:01.766Z,92.46
2022-07-28T05:20:03.262Z,92.42
2022-07-28T05:21:01.737Z,92.32
2022-07-28T05:22:01.726Z,92.32
2022-07-28T05:23:01.709Z,92.27
2022-07-28T05:24:01.706Z,92.27
2022-07-28T05:25:04.707Z,92.07
2022-07-28T05:26:04.681Z,91.83
2022-07-28T05:27:01.658Z,91.52
2022-07-28T05:28:01.648Z,91.31
2022-07-28T05:29:01.628Z,91.11
2022-07-28T05:30:01.621Z,90.86
2022-07-28T05:31:01.665Z,90.77
2022-07-28T05:32:06.415Z,90.56
2022-07-28T05:33:02.581Z,90.36
2022-07-28T05:34:01.576Z,90.22
2022-07-28T05:35:01.541Z,90.01
2022-07-28T05:36:01.542Z,89.70
2022-07-28T05:37:01.554Z,89.61
2022-07-28T05:38:01.511Z,89.61
2022-07-28T05:39:01.494Z,89.36
2022-07-28T05:40:01.472Z,89.26
2022-07-28T05:41:01.518Z,89.26
2022-07-28T05:42:01.452Z,89.26
2022-07-28T05:43:01.434Z,88.95
2022-07-28T05:44:01.438Z,88.75
2022-07-28T05:45:04.413Z,88.65
2022-07-28T05:46:05.557Z,88.65
2022-07-28T05:47:01.388Z,88.54
2022-07-28T05:48:01.375Z,88.54
2022-07-28T05:49:01.446Z,88.34
2022-07-28T05:50:01.349Z,88.44
2022-07-28T05:51:01.337Z,88.75
2022-07-28T05:52:01.348Z,88.95
2022-07-28T05:53:01.308Z,89.05
2022-07-28T05:54:01.310Z,88.95
2022-07-28T05:55:01.277Z,89.05
2022-07-28T05:56:01.960Z,89.01
2022-07-28T05:57:01.249Z,88.81
2022-07-28T05:58:01.240Z,88.50
2022-07-28T05:59:01.259Z,88.10
2022-07-28T06:00:01.211Z,88.20
2022-07-28T06:01:01.387Z,87.99
2022-07-28T06:02:01.299Z,87.73
2022-07-28T06:03:01.190Z,87.69
2022-07-28T06:04:25.725Z,87.89
2022-07-28T06:05:05.139Z,88.20
2022-07-28T06:06:15.307Z,88.50
2022-07-28T06:07:02.132Z,88.60
2022-07-28T06:08:01.102Z,88.81
2022-07-28T06:09:01.132Z,88.91
2022-07-28T06:10:01.073Z,88.91
2022-07-28T06:11:01.060Z,88.87
2022-07-28T06:12:01.062Z,88.87
2022-07-28T06:13:01.033Z,88.76
2022-07-28T06:14:01.042Z,88.56
2022-07-28T06:15:01.034Z,88.46
2022-07-28T06:16:01.046Z,88.46
2022-07-28T06:17:01.049Z,88.56
2022-07-28T06:18:00.965Z,88.36
2022-07-28T06:19:00.986Z,88.16
2022-07-28T06:20:00.953Z,87.95
2022-07-28T06:21:00.940Z,87.95
2022-07-28T06:22:00.909Z,87.85
2022-07-28T06:23:00.900Z,87.85
2022-07-28T06:24:00.918Z,87.75
2022-07-28T06:25:03.880Z,87.71
2022-07-28T06:26:03.878Z,87.71
2022-07-28T06:27:00.849Z,87.71
2022-07-28T06:28:00.830Z,87.61
2022-07-28T06:29:00.849Z,87.30
2022-07-28T06:30:00.801Z,87.30
2022-07-28T06:31:00.840Z,87.30
2022-07-28T06:32:00.814Z,87.30
2022-07-28T06:33:00.765Z,87.51
2022-07-28T06:34:00.747Z,87.46
2022-07-28T06:35:00.732Z,87.16
2022-07-28T06:36:00.724Z,87.06
2022-07-28T06:37:00.735Z,86.96
2022-07-28T06:38:00.692Z,86.55
2022-07-28T06:39:00.752Z,86.65
2022-07-28T06:40:00.675Z,86.25
2022-07-28T06:41:00.654Z,85.84
2022-07-28T06:42:00.653Z,85.94
2022-07-28T06:43:00.624Z,85.94
2022-07-28T06:44:00.731Z,85.84
2022-07-28T06:45:03.602Z,85.74
2022-07-28T06:46:03.628Z,85.60
2022-07-28T06:47:00.661Z,85.60
2022-07-28T06:48:00.564Z,85.39
2022-07-28T06:49:00.618Z,84.18
2022-07-28T06:50:00.533Z,83.73
2022-07-28T06:51:00.515Z,83.73
2022-07-28T06:52:00.508Z,83.63
2022-07-28T06:53:00.508Z,83.43
2022-07-28T06:54:00.517Z,83.43
2022-07-28T07:31:45.712Z,75.98
2022-07-28T07:32:44.374Z,75.48
2022-07-28T07:33:46.366Z,74.66
2022-07-28T07:34:44.266Z,73.96
2022-07-28T07:35:44.280Z,73.62
2022-07-28T07:36:44.248Z,73.02
2022-07-28T07:37:44.262Z,73.42
2022-07-28T07:38:44.233Z,74.02
2022-07-28T07:39:44.209Z,73.49
2022-07-28T07:40:44.200Z,72.17
2022-07-28T07:41:44.213Z,72.38
2022-07-28T07:42:44.194Z,71.97
2022-07-28T07:44:35.458Z,72.24
2022-07-28T07:45:35.441Z,72.04
2022-07-28T07:46:35.479Z,70.73
2022-07-28T07:47:35.440Z,71.40
2022-07-28T07:48:35.463Z,71.30
2022-07-28T07:49:45.369Z,70.59
2022-07-28T07:50:36.371Z,68.77
2022-07-28T07:51:35.353Z,68.54
2022-07-28T07:52:35.346Z,69.05
2022-07-28T07:53:35.371Z,69.62
2022-07-28T07:54:35.313Z,68.41
2022-07-28T07:55:37.689Z,69.12
2022-07-28T07:56:35.285Z,68.41
2022-07-28T07:57:35.265Z,67.47
2022-07-28T07:58:35.256Z,67.60
2022-07-28T07:59:35.289Z,67.80
2022-07-28T08:00:35.254Z,68.48
2022-07-28T08:01:35.280Z,67.97
2022-07-28T08:02:36.199Z,68.35
2022-07-28T08:03:38.188Z,67.94
2022-07-28T08:04:38.581Z,67.91
2022-07-28T08:05:36.382Z,67.21
2022-07-28T08:06:35.806Z,66.67
2022-07-28T08:07:35.128Z,65.97
2022-07-28T08:08:41.647Z,66.44
2022-07-28T08:09:36.100Z,65.13
2022-07-28T08:10:35.110Z,64.33
2022-07-28T08:11:35.122Z,65.44
2022-07-28T08:12:35.060Z,65.50
2022-07-28T08:13:35.044Z,65.50
2022-07-28T08:14:35.037Z,64.60
2022-07-28T08:15:35.022Z,63.32
2022-07-28T08:16:35.081Z,63.53
2022-07-28T08:17:35.013Z,64.13
2022-07-28T08:18:34.997Z,62.85
2022-07-28T08:19:34.972Z,62.75
2022-07-28T08:20:34.982Z,62.95
2022-07-28T08:21:34.975Z,64.06
2022-07-28T08:22:34.924Z,65.94
2022-07-28T08:23:37.917Z,65.44
2022-07-28T08:24:37.912Z,64.93
2022-07-28T08:25:34.898Z,65.44
2022-07-28T08:26:34.910Z,66.24
2022-07-28T08:27:34.856Z,66.71
2022-07-28T08:28:34.850Z,66.11
2022-07-28T08:29:34.830Z,65.80
2022-07-28T08:30:34.827Z,65.60
2022-07-28T08:31:35.426Z,65.07
2022-07-28T08:32:34.849Z,63.96
2022-07-28T08:33:34.779Z,62.26
2022-07-28T08:34:36.009Z,62.06
2022-07-28T08:35:35.702Z,61.55
2022-07-28T08:36:34.740Z,62.36
2022-07-28T08:37:34.720Z,64.57
2022-07-28T08:38:34.752Z,63.23
2022-07-28T08:39:34.724Z,60.65
2022-07-28T08:40:34.700Z,62.16
2022-07-28T08:41:34.673Z,61.76
2022-07-28T08:42:34.690Z,63.26
2022-07-28T08:43:37.643Z,61.46
2022-07-28T08:44:37.686Z,60.25
2022-07-28T08:45:37.296Z,60.75
2022-07-28T08:46:34.648Z,61.55
2022-07-28T08:47:58.643Z,60.96
2022-07-28T08:48:35.603Z,60.35
2022-07-28T08:49:34.566Z,60.35
2022-07-28T08:50:34.580Z,61.29
2022-07-28T08:51:34.535Z,60.55
2022-07-28T08:52:34.525Z,59.55
2022-07-28T08:53:34.542Z,60.65
2022-07-28T08:54:34.498Z,59.45
2022-07-28T08:55:34.478Z,60.35
2022-07-28T08:56:34.498Z,59.27
2022-07-28T08:57:34.460Z,60.18
2022-07-28T08:58:34.440Z,60.08
2022-07-28T08:59:34.430Z,60.98
2022-07-28T09:00:34.419Z,61.29
2022-07-28T09:01:38.737Z,61.29
2022-07-28T09:02:35.547Z,60.58
2022-07-28T09:03:37.453Z,59.47
2022-07-28T09:04:37.453Z,57.67
2022-07-28T09:05:34.341Z,57.09
2022-07-28T09:06:34.335Z,58.05
2022-07-28T09:07:34.329Z,59.28
2022-07-28T09:08:34.313Z,60.09
2022-07-28T09:09:34.306Z,61.77
2022-07-28T09:10:34.304Z,60.57
2022-07-28T09:11:34.265Z,61.65
2022-07-28T09:12:34.255Z,62.24
2022-07-28T09:13:34.236Z,61.61
2022-07-28T09:14:34.266Z,62.02
2022-07-28T09:15:34.308Z,60.51
2022-07-28T09:16:34.210Z,61.71
2022-07-28T09:17:34.190Z,60.58
2022-07-28T09:18:34.170Z,61.08
2022-07-28T09:19:35.835Z,60.58
2022-07-28T09:20:34.190Z,62.08
2022-07-28T09:21:34.129Z,60.96
2022-07-28T09:22:34.120Z,61.66
2022-07-28T09:23:44.031Z,60.45
2022-07-28T09:24:38.102Z,61.35
2022-07-28T09:25:34.081Z,61.76
2022-07-28T09:26:34.100Z,60.11
2022-07-28T09:27:34.052Z,61.34
2022-07-28T09:28:34.042Z,63.25
2022-07-28T09:29:34.022Z,62.12
2022-07-28T09:30:34.022Z,61.01
2022-07-28T09:31:34.077Z,60.51
2022-07-28T09:32:33.983Z,61.11
2022-07-28T09:33:41.157Z,61.61
2022-07-28T09:34:34.965Z,63.53
2022-07-28T09:35:33.956Z,63.49
2022-07-28T09:36:33.939Z,61.58
2022-07-28T09:37:33.946Z,61.18
2022-07-28T09:38:33.908Z,62.49
2022-07-28T09:39:33.887Z,63.39
2022-07-28T09:40:33.893Z,62.79
2022-07-28T09:41:33.871Z,64.00
2022-07-28T09:42:33.881Z,63.17
2022-07-28T09:43:36.838Z,63.26
2022-07-28T09:44:36.840Z,63.06
2022-07-28T09:45:33.809Z,62.66
2022-07-28T09:46:33.996Z,60.88
2022-07-28T09:47:34.025Z,61.38
2022-07-28T09:48:33.985Z,62.19
2022-07-28T09:49:33.885Z,62.69
2022-07-28T09:50:33.751Z,62.08
2022-07-28T09:51:33.732Z,61.08
2022-07-28T09:52:33.763Z,60.98
2022-07-28T09:53:33.705Z,60.78
2022-07-28T09:54:38.766Z,61.49
2022-07-28T09:55:34.677Z,60.85
2022-07-28T09:56:33.663Z,60.75
2022-07-28T09:57:33.684Z,59.75
2022-07-28T09:58:33.639Z,60.85
2022-07-28T09:59:33.636Z,59.65
2022-07-28T10:00:33.618Z,59.34
2022-07-28T10:01:36.678Z,59.67
2022-07-28T10:02:33.677Z,59.70
2022-07-28T10:03:36.576Z,60.87
2022-07-28T10:04:36.567Z,60.97
2022-07-28T10:05:33.561Z,61.47
2022-07-28T10:06:33.528Z,59.76
2022-07-28T10:07:33.519Z,60.77
2022-07-28T10:08:33.529Z,60.94
2022-07-28T10:09:33.524Z,60.13
2022-07-28T10:10:33.470Z,60.44
2022-07-28T10:11:37.711Z,60.41
2022-07-28T10:12:34.450Z,59.41
2022-07-28T10:13:33.434Z,58.90
2022-07-28T10:14:33.454Z,59.00
2022-07-28T10:15:33.469Z,59.43
2022-07-28T10:16:33.468Z,59.80
2022-07-28T10:17:33.385Z,58.29
2022-07-28T10:18:33.425Z,58.17
2022-07-28T10:19:33.371Z,58.87
2022-07-28T10:20:33.340Z,58.84
2022-07-28T10:21:33.337Z,58.64
2022-07-28T10:22:33.507Z,58.01
2022-07-28T10:23:36.346Z,58.42
2022-07-28T10:24:36.298Z,59.22
2022-07-28T10:25:33.277Z,57.41
2022-07-28T10:26:33.268Z,58.49
2022-07-28T10:27:33.248Z,59.59
2022-07-28T10:28:33.228Z,58.89
2022-07-28T10:29:33.254Z,58.72
2022-07-28T10:30:33.247Z,57.64
2022-07-28T10:31:33.201Z,59.01
2022-07-28T10:32:33.179Z,59.62
2022-07-28T10:33:33.170Z,57.41
2022-07-28T10:34:33.181Z,59.01
2022-07-28T10:35:33.153Z,57.01
2022-07-28T10:36:34.131Z,57.18
2022-07-28T10:37:33.143Z,57.79
2022-07-28T10:38:33.094Z,58.49
2022-07-28T10:39:33.116Z,57.59
2022-07-28T10:40:33.075Z,56.65
2022-07-28T10:41:33.063Z,56.65
2022-07-28T10:42:33.046Z,57.66
2022-07-28T10:43:36.053Z,57.46
2022-07-28T10:44:37.056Z,57.33
2022-07-28T10:45:55.197Z,56.33
2022-07-28T10:46:34.043Z,57.03
2022-07-28T10:47:35.895Z,56.33
2022-07-28T10:48:33.051Z,52.42
2022-07-28T10:49:33.220Z,52.64
2022-07-28T10:50:32.939Z,52.75
2022-07-28T10:51:32.928Z,52.07
2022-07-28T10:52:50.687Z,52.17
2022-07-28T10:53:33.961Z,53.20
2022-07-28T10:54:32.881Z,53.80
2022-07-28T10:55:32.870Z,54.60
2022-07-28T10:56:32.863Z,55.51
2022-07-28T10:57:32.854Z,57.28
2022-07-28T10:58:32.833Z,57.28
2022-07-28T10:59:32.871Z,58.96
2022-07-28T11:00:52.789Z,57.86
2022-07-28T11:01:48.377Z,55.15
2022-07-28T11:02:33.885Z,54.95
2022-07-28T11:03:35.866Z,53.77
2022-07-28T11:04:35.813Z,55.95
2022-07-28T11:05:32.755Z,55.45
2022-07-28T11:06:32.724Z,55.52
2022-07-28T11:07:32.715Z,56.02
2022-07-28T11:08:32.699Z,57.03
2022-07-28T11:09:32.687Z,57.73
2022-07-28T11:10:32.696Z,55.52
2022-07-28T11:11:32.657Z,56.83
2022-07-28T11:12:32.655Z,56.83
2022-07-28T11:13:33.074Z,57.53
2022-07-28T11:14:32.611Z,57.73
2022-07-28T11:15:32.786Z,57.03
2022-07-28T11:16:36.846Z,56.52
2022-07-28T11:17:33.364Z,57.03
2022-07-28T11:18:32.564Z,55.52
2022-07-28T11:19:40.532Z,54.12
2022-07-28T11:20:33.582Z,54.75
2022-07-28T11:21:39.642Z,54.85
2022-07-28T11:22:34.553Z,54.68
2022-07-28T11:23:35.493Z,55.85
2022-07-28T11:24:35.494Z,56.63
2022-07-28T11:25:32.474Z,55.43
2022-07-28T11:26:32.488Z,54.20
2022-07-28T11:27:32.445Z,54.30
2022-07-28T11:28:32.434Z,51.97
2022-07-28T11:29:32.418Z,53.87
2022-07-28T11:30:32.456Z,53.64
2022-07-28T11:31:32.395Z,52.64
2022-07-28T11:32:42.245Z,53.14
2022-07-28T11:33:33.389Z,54.05
2022-07-28T11:34:32.339Z,51.44
2022-07-28T11:35:32.357Z,51.84
2022-07-28T11:36:32.340Z,54.85
2022-07-28T11:37:32.329Z,53.12
2022-07-28T11:38:32.369Z,53.24
2022-07-28T11:39:43.012Z,53.64
2022-07-28T11:40:33.265Z,53.92
2022-07-28T11:41:32.253Z,53.72
2022-07-28T11:42:32.235Z,53.79
2022-07-28T11:43:37.670Z,53.37
2022-07-28T11:44:35.222Z,52.04
2022-07-28T11:45:37.712Z,51.15
2022-07-28T11:46:33.211Z,49.90
2022-07-28T11:47:32.174Z,52.02
2022-07-28T11:48:32.185Z,52.32
2022-07-28T11:49:32.245Z,51.34
2022-07-28T11:50:32.129Z,50.94
2022-07-28T11:51:33.525Z,50.76
2022-07-28T11:52:33.105Z,52.77
2022-07-28T11:53:32.089Z,52.57
2022-07-28T11:54:32.101Z,51.84
2022-07-28T11:55:55.677Z,51.77
2022-07-28T11:56:33.048Z,51.44
2022-07-28T11:57:32.042Z,51.72
2022-07-28T11:58:32.021Z,53.67
2022-07-28T11:59:36.822Z,52.42
2022-07-28T12:00:32.999Z,52.89
2022-07-28T12:01:32.456Z,51.57
2022-07-28T12:02:33.046Z,49.87
2022-07-28T12:03:38.452Z,48.40
2022-07-28T12:04:36.090Z,50.40
2022-07-28T12:05:41.559Z,48.50
2022-07-28T12:06:32.914Z,48.70
2022-07-28T12:07:31.923Z,49.02
2022-07-28T12:08:31.886Z,51.75
2022-07-28T12:09:41.585Z,50.15
2022-07-28T12:11:02.837Z,49.85
2022-07-28T12:11:32.855Z,49.17
2022-07-28T12:12:31.845Z,49.19
2022-07-28T12:13:31.836Z,49.59
2022-07-28T12:14:34.886Z,49.69
2022-07-28T12:15:32.852Z,51.20
2022-07-28T12:16:31.860Z,50.39
2022-07-28T12:17:31.783Z,49.59
2022-07-28T12:18:31.768Z,50.02
2022-07-28T12:19:32.805Z,51.92
2022-07-28T12:20:31.730Z,50.52
2022-07-28T12:21:31.753Z,49.46
2022-07-28T12:22:31.701Z,49.96
2022-07-28T12:23:38.966Z,53.00
2022-07-28T12:24:46.054Z,51.89
2022-07-28T12:25:32.663Z,53.39
2022-07-28T12:26:31.865Z,53.89
2022-07-28T12:27:31.890Z,51.39
2022-07-28T12:28:31.625Z,52.89
2022-07-28T12:29:32.219Z,51.39
2022-07-28T12:30:31.595Z,51.17
2022-07-28T12:31:31.655Z,51.67
2022-07-28T12:32:31.594Z,52.39
2022-07-28T12:33:31.550Z,52.19
2022-07-28T12:34:31.527Z,51.49
2022-07-28T12:35:31.537Z,52.19
2022-07-28T12:36:31.507Z,51.29
2022-07-28T12:37:31.518Z,51.89
2022-07-28T12:38:31.509Z,52.32
2022-07-28T12:39:31.472Z,53.42
2022-07-28T12:40:31.458Z,54.00
2022-07-28T12:41:31.439Z,53.72
2022-07-28T12:42:31.481Z,53.59
2022-07-28T12:43:34.421Z,53.80
2022-07-28T12:44:34.413Z,51.39
2022-07-28T12:45:31.428Z,51.51
2022-07-28T12:46:31.373Z,52.82
2022-07-28T12:47:31.356Z,52.62
2022-07-28T12:48:31.386Z,52.39
2022-07-28T12:49:31.337Z,53.30
2022-07-28T12:50:31.322Z,53.87
2022-07-28T12:51:31.316Z,51.77
2022-07-28T12:52:31.326Z,52.37
2022-07-28T12:53:31.286Z,52.57
2022-07-28T12:54:31.266Z,52.07
2022-07-28T12:55:31.254Z,50.76
2022-07-28T12:56:31.237Z,50.64
2022-07-28T12:57:31.259Z,50.24
2022-07-28T12:58:31.218Z,52.14
2022-07-28T12:59:31.268Z,53.32
2022-07-28T13:00:31.202Z,50.79
2022-07-28T13:01:31.213Z,50.20
2022-07-28T13:02:31.177Z,50.20
2022-07-28T13:03:34.149Z,50.04
2022-07-28T13:04:34.203Z,50.76
2022-07-28T13:05:31.121Z,51.07
2022-07-28T13:06:31.125Z,50.84
2022-07-28T13:07:31.100Z,51.27
2022-07-28T13:08:31.093Z,51.27
2022-07-28T13:09:32.652Z,51.97
2022-07-28T13:10:31.268Z,51.51
2022-07-28T13:11:47.414Z,53.45
2022-07-28T13:12:32.032Z,53.00
2022-07-28T13:13:31.004Z,53.22
2022-07-28T13:14:30.997Z,53.82
2022-07-28T13:15:30.976Z,54.13
2022-07-28T13:16:31.081Z,54.96
2022-07-28T13:17:30.960Z,54.75
2022-07-28T13:18:30.938Z,54.85
2022-07-28T13:19:30.928Z,55.13
2022-07-28T13:20:30.940Z,54.63
2022-07-28T13:21:30.899Z,54.63
2022-07-28T13:22:30.885Z,54.33
2022-07-28T13:23:33.874Z,55.33
2022-07-28T13:24:33.872Z,54.63
2022-07-28T13:25:30.883Z,53.80
2022-07-28T13:26:30.830Z,53.80
2022-07-28T13:27:30.846Z,54.00
2022-07-28T13:28:30.804Z,53.90
2022-07-28T13:29:30.793Z,53.70